^^
Saratoga-Weather Station Historical Data
Daily Summary for June 24, 2022 Units:  Both    English   Metric
Daily Weekly Monthly Yearly Custom
  High: Low: Average:
Temperature: 73.6 °F /  23.1 °C 60.4 °F /  15.8 °C 66.6 °F /  19.2 °C
Dew Point: 65.8 °F /  18.8 °C 58.6 °F /  14.8 °C 61.9 °F /  16.6 °C
Humidity: 94% 70% 86%
Wind Speed: 8.9mph /  14.3km/h - 1.9mph /  3.1km/h
Wind Gust: 13mph /  20.9km/h - -
Wind- - SW
Pressure: 29.8 in /  1010.2 hPa 29.7 in /  1006.4 hPa -
Precipitation: 0.2 in /  5.1 mm    
Historical Graphs
 
 
Tabular Data for June 24, 2022
Time Temperature Dew Point Pressure Wind Wind Speed Wind Gust Humidity Rainfall Rate (Hourly) solar
00:02 64.2 °F /  17.9 °C 62.2 °F /  16.8 °C 29.8in /  1008.1hPa Calm     93% 0in /  0.0mm 0 W/m2
00:07 64.2 °F /  17.9 °C 62.2 °F /  16.8 °C 29.8in /  1008.1hPa Calm   1mph /  1.6km/h 93% 0in /  0.0mm 0 W/m2
00:12 64 °F /  17.8 °C 62.2 °F /  16.8 °C 29.8in /  1007.8hPa Calm   1mph /  1.6km/h 94% 0in /  0.0mm 0 W/m2
00:17 64 °F /  17.8 °C 62.2 °F /  16.8 °C 29.8in /  1007.8hPa Calm   1mph /  1.6km/h 94% 0in /  0.0mm 0 W/m2
00:22 64 °F /  17.8 °C 62.2 °F /  16.8 °C 29.8in /  1007.8hPa WSW 0.9mph /  1.4km/h 2mph /  3.2km/h 94% 0in /  0.0mm 0 W/m2
00:27 63.9 °F /  17.7 °C 62.1 °F /  16.7 °C 29.8in /  1007.8hPa Calm   1mph /  1.6km/h 94% 0in /  0.0mm 0 W/m2
00:32 63.7 °F /  17.6 °C 61.9 °F /  16.6 °C 29.8in /  1007.5hPa SW 2mph /  3.2km/h 3mph /  4.8km/h 94% 0in /  0.0mm 0 W/m2
00:37 63.5 °F /  17.5 °C 61.7 °F /  16.5 °C 29.8in /  1007.8hPa Calm     94% 0in /  0.0mm 0 W/m2
00:42 63.3 °F /  17.4 °C 61.5 °F /  16.4 °C 29.8in /  1007.5hPa Calm   3mph /  4.8km/h 94% 0in /  0.0mm 0 W/m2
00:47 63.3 °F /  17.4 °C 61.5 °F /  16.4 °C 29.8in /  1007.5hPa Calm     94% 0in /  0.0mm 0 W/m2
00:52 63.1 °F /  17.3 °C 61.3 °F /  16.3 °C 29.8in /  1007.8hPa Calm   3mph /  4.8km/h 94% 0in /  0.0mm 0 W/m2
00:57 63 °F /  17.2 °C 61.2 °F /  16.2 °C 29.8in /  1007.8hPa Calm     94% 0in /  0.0mm 0 W/m2
01:02 63 °F /  17.2 °C 61.2 °F /  16.2 °C 29.8in /  1007.8hPa Calm   2mph /  3.2km/h 94% 0in /  0.0mm 0 W/m2
01:07 63 °F /  17.2 °C 61.2 °F /  16.2 °C 29.8in /  1007.8hPa Calm   2mph /  3.2km/h 94% 0in /  0.0mm 0 W/m2
01:12 63 °F /  17.2 °C 61.2 °F /  16.2 °C 29.8in /  1007.8hPa Calm   1mph /  1.6km/h 94% 0in /  0.0mm 0 W/m2
01:17 63 °F /  17.2 °C 61.2 °F /  16.2 °C 29.8in /  1007.8hPa Calm     94% 0in /  0.0mm 0 W/m2
01:22 62.8 °F /  17.1 °C 61 °F /  16.1 °C 29.8in /  1007.8hPa NE 0.9mph /  1.4km/h 2mph /  3.2km/h 94% 0in /  0.0mm 0 W/m2
01:27 63 °F /  17.2 °C 61.2 °F /  16.2 °C 29.8in /  1007.8hPa Calm     94% 0in /  0.0mm 0 W/m2
01:32 63 °F /  17.2 °C 61 °F /  16.1 °C 29.8in /  1007.8hPa NW 0.9mph /  1.4km/h 2mph /  3.2km/h 93% 0in /  0.0mm 0 W/m2
01:37 63 °F /  17.2 °C 61 °F /  16.1 °C 29.8in /  1007.8hPa WNW 0.9mph /  1.4km/h 3mph /  4.8km/h 93% 0in /  0.0mm 0 W/m2
01:42 63.1 °F /  17.3 °C 61.2 °F /  16.2 °C 29.8in /  1007.8hPa Calm   1mph /  1.6km/h 93% 0in /  0.0mm 0 W/m2
01:47 63.1 °F /  17.3 °C 61.2 °F /  16.2 °C 29.8in /  1007.8hPa West 0.9mph /  1.4km/h 3mph /  4.8km/h 93% 0in /  0.0mm 0 W/m2
01:52 63.3 °F /  17.4 °C 61.3 °F /  16.3 °C 29.8in /  1007.8hPa Calm   4mph /  6.4km/h 93% 0in /  0.0mm 0 W/m2
01:57 63.3 °F /  17.4 °C 61 °F /  16.1 °C 29.8in /  1007.8hPa Calm   3mph /  4.8km/h 92% 0in /  0.0mm 0 W/m2
02:02 63.5 °F /  17.5 °C 61.2 °F /  16.2 °C 29.8in /  1007.8hPa Calm   1mph /  1.6km/h 92% 0in /  0.0mm 0 W/m2
02:07 63.5 °F /  17.5 °C 61.2 °F /  16.2 °C 29.8in /  1007.8hPa Calm   1mph /  1.6km/h 92% 0in /  0.0mm 0 W/m2
02:12 63.3 °F /  17.4 °C 61 °F /  16.1 °C 29.8in /  1007.8hPa NNW 0.9mph /  1.4km/h 1mph /  1.6km/h 92% 0in /  0.0mm 0 W/m2
02:17 63.3 °F /  17.4 °C 61 °F /  16.1 °C 29.8in /  1007.8hPa Calm   2mph /  3.2km/h 92% 0in /  0.0mm 0 W/m2
02:22 63.3 °F /  17.4 °C 61 °F /  16.1 °C 29.8in /  1007.8hPa Calm   2mph /  3.2km/h 92% 0in /  0.0mm 0 W/m2
02:27 63.3 °F /  17.4 °C 61 °F /  16.1 °C 29.8in /  1007.8hPa Calm   1mph /  1.6km/h 92% 0in /  0.0mm 0 W/m2
02:32 63.3 °F /  17.4 °C 61 °F /  16.1 °C 29.8in /  1007.8hPa NNE 0.9mph /  1.4km/h 3mph /  4.8km/h 92% 0in /  0.0mm 0 W/m2
02:37 63.5 °F /  17.5 °C 61.2 °F /  16.2 °C 29.8in /  1007.8hPa Calm   1mph /  1.6km/h 92% 0in /  0.0mm 0 W/m2
02:42 63.3 °F /  17.4 °C 61 °F /  16.1 °C 29.8in /  1007.5hPa Calm   2mph /  3.2km/h 92% 0in /  0.0mm 0 W/m2
02:47 63.5 °F /  17.5 °C 61.2 °F /  16.2 °C 29.8in /  1007.5hPa Calm   1mph /  1.6km/h 92% 0in /  0.0mm 0 W/m2
02:52 63.5 °F /  17.5 °C 61.5 °F /  16.4 °C 29.8in /  1007.5hPa Calm   1mph /  1.6km/h 93% 0in /  0.0mm 0 W/m2
02:57 63.5 °F /  17.5 °C 61.5 °F /  16.4 °C 29.8in /  1007.5hPa Calm   1mph /  1.6km/h 93% 0in /  0.0mm 0 W/m2
03:02 63.5 °F /  17.5 °C 61.5 °F /  16.4 °C 29.8in /  1007.5hPa NW 0.9mph /  1.4km/h 4mph /  6.4km/h 93% 0in /  0.0mm 0 W/m2
03:07 63.5 °F /  17.5 °C 61.5 °F /  16.4 °C 29.8in /  1007.5hPa West 0.9mph /  1.4km/h 2mph /  3.2km/h 93% 0in /  0.0mm 0 W/m2
03:12 63.7 °F /  17.6 °C 61.3 °F /  16.3 °C 29.7in /  1007.1hPa WNW 0.9mph /  1.4km/h 4mph /  6.4km/h 92% 0in /  0.0mm 0 W/m2
03:17 63.7 °F /  17.6 °C 61.3 °F /  16.3 °C 29.7in /  1007.1hPa Calm   3mph /  4.8km/h 92% 0in /  0.0mm 0 W/m2
03:22 63.7 °F /  17.6 °C 61.3 °F /  16.3 °C 29.7in /  1007.1hPa WNW 2mph /  3.2km/h 4mph /  6.4km/h 92% 0in /  0.0mm 0 W/m2
03:27 63.7 °F /  17.6 °C 61.3 °F /  16.3 °C 29.7in /  1007.1hPa NNW 0.9mph /  1.4km/h 2mph /  3.2km/h 92% 0in /  0.0mm 0 W/m2
03:32 63.7 °F /  17.6 °C 61.3 °F /  16.3 °C 29.8in /  1007.5hPa WNW 0.9mph /  1.4km/h 4mph /  6.4km/h 92% 0in /  0.0mm 0 W/m2
03:37 63.7 °F /  17.6 °C 61.3 °F /  16.3 °C 29.8in /  1007.5hPa NNW 2mph /  3.2km/h 3mph /  4.8km/h 92% 0in /  0.0mm 0 W/m2
03:42 63.7 °F /  17.6 °C 61.3 °F /  16.3 °C 29.8in /  1007.5hPa NNE 0.9mph /  1.4km/h 3mph /  4.8km/h 92% 0in /  0.0mm 0 W/m2
03:47 63.7 °F /  17.6 °C 61.3 °F /  16.3 °C 29.8in /  1007.5hPa West 2mph /  3.2km/h 7mph /  11.3km/h 92% 0in /  0.0mm 0 W/m2
03:52 63.7 °F /  17.6 °C 61.3 °F /  16.3 °C 29.8in /  1007.5hPa NNW 8.1mph /  13km/h 9mph /  14.5km/h 92% 0in /  0.0mm 0 W/m2
03:57 63.1 °F /  17.3 °C 60.4 °F /  15.8 °C 29.8in /  1007.5hPa West 4mph /  6.4km/h 7mph /  11.3km/h 91% 0in /  0.0mm 0 W/m2
04:02 63 °F /  17.2 °C 60.3 °F /  15.7 °C 29.8in /  1007.5hPa West 6mph /  9.7km/h 8mph /  12.9km/h 91% 0in /  0.0mm 0 W/m2
04:07 62.6 °F /  17 °C 60.3 °F /  15.7 °C 29.8in /  1007.5hPa WSW 4.9mph /  7.9km/h 10mph /  16.1km/h 92% 0in /  0.0mm 0 W/m2
04:13 62.4 °F /  16.9 °C 60.1 °F /  15.6 °C 29.8in /  1007.5hPa WNW 2.9mph /  4.7km/h 4mph /  6.4km/h 92% 0in /  0.0mm 0 W/m2
04:18 62.2 °F /  16.8 °C 59.9 °F /  15.5 °C 29.8in /  1007.5hPa North 4mph /  6.4km/h 10mph /  16.1km/h 92% 0.01in /  0.2mm 0 W/m2
04:23 62.1 °F /  16.7 °C 59.7 °F /  15.4 °C 29.8in /  1007.5hPa NW 2mph /  3.2km/h 4mph /  6.4km/h 92% 0.02in /  0.5mm 0 W/m2
04:28 62.1 °F /  16.7 °C 60.1 °F /  15.6 °C 29.8in /  1007.5hPa West 2mph /  3.2km/h 4mph /  6.4km/h 93% 0.02in /  0.5mm 0 W/m2
04:33 62.1 °F /  16.7 °C 60.1 °F /  15.6 °C 29.7in /  1007.1hPa West 2.9mph /  4.7km/h 9mph /  14.5km/h 93% 0.02in /  0.5mm 0 W/m2
04:38 62.1 °F /  16.7 °C 60.1 °F /  15.6 °C 29.7in /  1007.1hPa NW 2.9mph /  4.7km/h 8mph /  12.9km/h 93% 0.02in /  0.5mm 0 W/m2
04:43 62.1 °F /  16.7 °C 60.1 °F /  15.6 °C 29.7in /  1007.1hPa WNW 2mph /  3.2km/h 9mph /  14.5km/h 93% 0.02in /  0.5mm 0 W/m2
04:48 62.1 °F /  16.7 °C 60.1 °F /  15.6 °C 29.7in /  1007.1hPa WNW 2mph /  3.2km/h 7mph /  11.3km/h 93% 0.02in /  0.5mm 0 W/m2
04:53 62.1 °F /  16.7 °C 60.1 °F /  15.6 °C 29.7in /  1007.1hPa NW 2.9mph /  4.7km/h 8mph /  12.9km/h 93% 0.02in /  0.5mm 0 W/m2
04:58 62.1 °F /  16.7 °C 60.1 °F /  15.6 °C 29.7in /  1007.1hPa WSW 2.9mph /  4.7km/h 4mph /  6.4km/h 93% 0.02in /  0.5mm 0 W/m2
05:03 62.1 °F /  16.7 °C 60.1 °F /  15.6 °C 29.7in /  1007.1hPa West 6mph /  9.7km/h 7mph /  11.3km/h 93% 0.02in /  0.5mm 0 W/m2
05:08 62.1 °F /  16.7 °C 60.1 °F /  15.6 °C 29.7in /  1006.8hPa NW 2mph /  3.2km/h 4mph /  6.4km/h 93% 0.02in /  0.5mm 0 W/m2
05:13 62.1 °F /  16.7 °C 60.1 °F /  15.6 °C 29.7in /  1006.8hPa SW 4mph /  6.4km/h 4mph /  6.4km/h 93% 0.02in /  0.5mm 0 W/m2
05:18 62.1 °F /  16.7 °C 60.1 °F /  15.6 °C 29.7in /  1006.8hPa NW 2mph /  3.2km/h 4mph /  6.4km/h 93% 0.01in /  0.2mm 0 W/m2
05:23 62.1 °F /  16.7 °C 60.1 °F /  15.6 °C 29.7in /  1006.8hPa West 0.9mph /  1.4km/h 5mph /  8km/h 93% 0in /  0.0mm 0 W/m2
05:28 62.1 °F /  16.7 °C 60.1 °F /  15.6 °C 29.7in /  1006.8hPa WSW 4.9mph /  7.9km/h 10mph /  16.1km/h 93% 0in /  0.0mm 0 W/m2
05:33 62.1 °F /  16.7 °C 60.1 °F /  15.6 °C 29.7in /  1007.1hPa West 0.9mph /  1.4km/h 7mph /  11.3km/h 93% 0in /  0.0mm 0 W/m2
05:38 62.1 °F /  16.7 °C 60.1 °F /  15.6 °C 29.7in /  1007.1hPa NNW 4mph /  6.4km/h 10mph /  16.1km/h 93% 0in /  0.0mm 0 W/m2
05:43 62.1 °F /  16.7 °C 60.1 °F /  15.6 °C 29.7in /  1007.1hPa NNW 0.9mph /  1.4km/h 7mph /  11.3km/h 93% 0in /  0.0mm 0 W/m2
05:48 62.1 °F /  16.7 °C 60.1 °F /  15.6 °C 29.7in /  1007.1hPa WNW 2mph /  3.2km/h 4mph /  6.4km/h 93% 0in /  0.0mm 0 W/m2
05:53 62.1 °F /  16.7 °C 60.1 °F /  15.6 °C 29.7in /  1007.1hPa NW 0.9mph /  1.4km/h 2mph /  3.2km/h 93% 0in /  0.0mm 5 W/m2
05:58 62.1 °F /  16.7 °C 60.1 °F /  15.6 °C 29.7in /  1007.1hPa West 2mph /  3.2km/h 4mph /  6.4km/h 93% 0in /  0.0mm 7 W/m2
06:03 62.1 °F /  16.7 °C 60.1 °F /  15.6 °C 29.7in /  1007.1hPa WNW 2.9mph /  4.7km/h 4mph /  6.4km/h 93% 0in /  0.0mm 7 W/m2
06:08 62.1 °F /  16.7 °C 60.1 °F /  15.6 °C 29.7in /  1007.1hPa WNW 2.9mph /  4.7km/h 5mph /  8km/h 93% 0in /  0.0mm 9 W/m2
06:13 62.1 °F /  16.7 °C 60.1 °F /  15.6 °C 29.7in /  1007.1hPa WNW 4mph /  6.4km/h 4mph /  6.4km/h 93% 0in /  0.0mm 9 W/m2
06:18 62.1 °F /  16.7 °C 60.1 °F /  15.6 °C 29.8in /  1007.5hPa WNW 0.9mph /  1.4km/h 4mph /  6.4km/h 93% 0in /  0.0mm 11 W/m2
06:23 62.1 °F /  16.7 °C 60.1 °F /  15.6 °C 29.8in /  1007.5hPa WNW 2mph /  3.2km/h 6mph /  9.7km/h 93% 0in /  0.0mm 11 W/m2
06:28 62.2 °F /  16.8 °C 60.3 °F /  15.7 °C 29.8in /  1007.5hPa WNW 2.9mph /  4.7km/h 7mph /  11.3km/h 93% 0in /  0.0mm 11 W/m2
06:33 62.2 °F /  16.8 °C 60.3 °F /  15.7 °C 29.8in /  1007.5hPa WNW 2.9mph /  4.7km/h 7mph /  11.3km/h 93% 0in /  0.0mm 16 W/m2
06:38 62.2 °F /  16.8 °C 60.3 °F /  15.7 °C 29.8in /  1007.5hPa WNW 6mph /  9.7km/h 7mph /  11.3km/h 93% 0in /  0.0mm 19 W/m2
06:43 62.2 °F /  16.8 °C 60.3 °F /  15.7 °C 29.8in /  1007.5hPa WSW 4mph /  6.4km/h 8mph /  12.9km/h 93% 0in /  0.0mm 21 W/m2
06:48 62.2 °F /  16.8 °C 60.3 °F /  15.7 °C 29.8in /  1007.5hPa West 2mph /  3.2km/h 6mph /  9.7km/h 93% 0in /  0.0mm 30 W/m2
06:53 62.2 °F /  16.8 °C 60.3 °F /  15.7 °C 29.7in /  1007.1hPa NNW 0.9mph /  1.4km/h 5mph /  8km/h 93% 0in /  0.0mm 37 W/m2
06:58 62.2 °F /  16.8 °C 60.3 °F /  15.7 °C 29.7in /  1007.1hPa WNW 0.9mph /  1.4km/h 5mph /  8km/h 93% 0in /  0.0mm 35 W/m2
07:03 62.2 °F /  16.8 °C 60.3 °F /  15.7 °C 29.7in /  1007.1hPa WNW 0.9mph /  1.4km/h 4mph /  6.4km/h 93% 0in /  0.0mm 39 W/m2
07:08 62.2 °F /  16.8 °C 60.3 °F /  15.7 °C 29.8in /  1007.5hPa NW 4mph /  6.4km/h 4mph /  6.4km/h 93% 0in /  0.0mm 42 W/m2
07:13 62.4 °F /  16.9 °C 60.4 °F /  15.8 °C 29.8in /  1007.5hPa WNW 2mph /  3.2km/h 4mph /  6.4km/h 93% 0in /  0.0mm 46 W/m2
07:18 62.4 °F /  16.9 °C 60.4 °F /  15.8 °C 29.7in /  1007.1hPa NW 2mph /  3.2km/h 4mph /  6.4km/h 93% 0in /  0.0mm 56 W/m2
07:23 62.4 °F /  16.9 °C 60.4 °F /  15.8 °C 29.7in /  1007.1hPa West 2.9mph /  4.7km/h 4mph /  6.4km/h 93% 0in /  0.0mm 69 W/m2
07:28 62.6 °F /  17 °C 60.6 °F /  15.9 °C 29.7in /  1007.1hPa West 2mph /  3.2km/h 6mph /  9.7km/h 93% 0in /  0.0mm 84 W/m2
07:33 62.6 °F /  17 °C 60.6 °F /  15.9 °C 29.7in /  1007.1hPa NW 2.9mph /  4.7km/h 3mph /  4.8km/h 93% 0in /  0.0mm 127 W/m2
07:38 62.8 °F /  17.1 °C 60.4 °F /  15.8 °C 29.7in /  1007.1hPa NNW 2mph /  3.2km/h 4mph /  6.4km/h 92% 0in /  0.0mm 234 W/m2
07:43 63.1 °F /  17.3 °C 60.8 °F /  16 °C 29.7in /  1007.1hPa NNW 2.9mph /  4.7km/h 3mph /  4.8km/h 92% 0in /  0.0mm 250 W/m2
07:48 63.5 °F /  17.5 °C 61.2 °F /  16.2 °C 29.7in /  1007.1hPa WNW 2.9mph /  4.7km/h 4mph /  6.4km/h 92% 0in /  0.0mm 239 W/m2
07:53 63.9 °F /  17.7 °C 61.2 °F /  16.2 °C 29.7in /  1007.1hPa WNW 2.9mph /  4.7km/h 6mph /  9.7km/h 91% 0in /  0.0mm 276 W/m2
07:58 64.2 °F /  17.9 °C 61.5 °F /  16.4 °C 29.7in /  1007.1hPa SW 0.9mph /  1.4km/h 3mph /  4.8km/h 91% 0in /  0.0mm 301 W/m2
08:03 64.6 °F /  18.1 °C 61.3 °F /  16.3 °C 29.7in /  1007.1hPa NNW 2mph /  3.2km/h 8mph /  12.9km/h 89% 0in /  0.0mm 304 W/m2
08:08 64.8 °F /  18.2 °C 61.5 °F /  16.4 °C 29.7in /  1007.1hPa WNW 0.9mph /  1.4km/h 9mph /  14.5km/h 89% 0in /  0.0mm 243 W/m2
08:13 64.9 °F /  18.3 °C 61.7 °F /  16.5 °C 29.7in /  1007.1hPa WSW 2.9mph /  4.7km/h 4mph /  6.4km/h 89% 0in /  0.0mm 369 W/m2
08:18 65.5 °F /  18.6 °C 61.9 °F /  16.6 °C 29.7in /  1007.1hPa West 4mph /  6.4km/h 6mph /  9.7km/h 88% 0in /  0.0mm 381 W/m2
08:23 65.7 °F /  18.7 °C 61.7 °F /  16.5 °C 29.7in /  1007.1hPa NW 2mph /  3.2km/h 4mph /  6.4km/h 87% 0in /  0.0mm 345 W/m2
08:28 65.8 °F /  18.8 °C 61.9 °F /  16.6 °C 29.7in /  1007.1hPa West 4mph /  6.4km/h 7mph /  11.3km/h 87% 0in /  0.0mm 176 W/m2
08:33 66.2 °F /  19 °C 62.6 °F /  17 °C 29.7in /  1007.1hPa West 2mph /  3.2km/h 5mph /  8km/h 88% 0in /  0.0mm 211 W/m2
08:38 66.7 °F /  19.3 °C 62.4 °F /  16.9 °C 29.7in /  1007.1hPa NNW 0.9mph /  1.4km/h 11mph /  17.7km/h 86% 0in /  0.0mm 153 W/m2
08:43 66.7 °F /  19.3 °C 62.1 °F /  16.7 °C 29.7in /  1007.1hPa NNW 2.9mph /  4.7km/h 4mph /  6.4km/h 85% 0in /  0.0mm 134 W/m2
08:48 67.1 °F /  19.5 °C 62.4 °F /  16.9 °C 29.7in /  1007.1hPa West 8.9mph /  14.3km/h 12mph /  19.3km/h 85% 0in /  0.0mm 141 W/m2
08:53 66.9 °F /  19.4 °C 62.6 °F /  17 °C 29.8in /  1007.5hPa West 2.9mph /  4.7km/h 4mph /  6.4km/h 86% 0in /  0.0mm 149 W/m2
08:58 66.9 °F /  19.4 °C 62.2 °F /  16.8 °C 29.8in /  1007.5hPa WNW 4.9mph /  7.9km/h 12mph /  19.3km/h 85% 0in /  0.0mm 223 W/m2
09:03 66.9 °F /  19.4 °C 62.2 °F /  16.8 °C 29.8in /  1007.5hPa NNW 4.9mph /  7.9km/h 8mph /  12.9km/h 85% 0in /  0.0mm 230 W/m2
09:08 66.6 °F /  19.2 °C 61.9 °F /  16.6 °C 29.8in /  1007.5hPa WSW 4mph /  6.4km/h 10mph /  16.1km/h 85% 0in /  0.0mm 225 W/m2
09:13 66.4 °F /  19.1 °C 62.1 °F /  16.7 °C 29.8in /  1007.5hPa WNW 8.9mph /  14.3km/h 10mph /  16.1km/h 86% 0in /  0.0mm 195 W/m2
09:18 66 °F /  18.9 °C 61.3 °F /  16.3 °C 29.8in /  1007.5hPa NW 4mph /  6.4km/h 8mph /  12.9km/h 85% 0in /  0.0mm 144 W/m2
09:23 65.8 °F /  18.8 °C 61.5 °F /  16.4 °C 29.8in /  1007.5hPa WSW 4.9mph /  7.9km/h 7mph /  11.3km/h 86% 0in /  0.0mm 149 W/m2
09:28 65.8 °F /  18.8 °C 61.2 °F /  16.2 °C 29.8in /  1007.5hPa West 4mph /  6.4km/h 5mph /  8km/h 85% 0in /  0.0mm 165 W/m2
09:33 65.8 °F /  18.8 °C 61.2 °F /  16.2 °C 29.8in /  1007.5hPa NW 4mph /  6.4km/h 5mph /  8km/h 85% 0in /  0.0mm 169 W/m2
09:38 65.8 °F /  18.8 °C 61.5 °F /  16.4 °C 29.8in /  1007.5hPa NW 4.9mph /  7.9km/h 9mph /  14.5km/h 86% 0in /  0.0mm 162 W/m2
09:43 66.2 °F /  19 °C 61.9 °F /  16.6 °C 29.7in /  1007.1hPa NW 4.9mph /  7.9km/h 7mph /  11.3km/h 86% 0in /  0.0mm 128 W/m2
09:48 66.2 °F /  19 °C 61.5 °F /  16.4 °C 29.7in /  1007.1hPa WNW 4mph /  6.4km/h 6mph /  9.7km/h 85% 0in /  0.0mm 134 W/m2
09:53 66.2 °F /  19 °C 61.5 °F /  16.4 °C 29.7in /  1007.1hPa WNW 2mph /  3.2km/h 7mph /  11.3km/h 85% 0in /  0.0mm 156 W/m2
09:58 66.4 °F /  19.1 °C 61.7 °F /  16.5 °C 29.7in /  1007.1hPa NW 2.9mph /  4.7km/h 7mph /  11.3km/h 85% 0in /  0.0mm 267 W/m2
10:03 66.9 °F /  19.4 °C 61.9 °F /  16.6 °C 29.7in /  1007.1hPa WNW 4mph /  6.4km/h 13mph /  20.9km/h 84% 0in /  0.0mm 220 W/m2
10:08 67.5 °F /  19.7 °C 62.4 °F /  16.9 °C 29.7in /  1007.1hPa NW 4mph /  6.4km/h 8mph /  12.9km/h 84% 0in /  0.0mm 253 W/m2
10:13 67.8 °F /  19.9 °C 62.8 °F /  17.1 °C 29.7in /  1007.1hPa WSW 4mph /  6.4km/h 10mph /  16.1km/h 84% 0in /  0.0mm 174 W/m2
10:18 67.8 °F /  19.9 °C 62.4 °F /  16.9 °C 29.7in /  1007.1hPa West 6mph /  9.7km/h 9mph /  14.5km/h 83% 0in /  0.0mm 200 W/m2
10:23 67.8 °F /  19.9 °C 62.1 °F /  16.7 °C 29.8in /  1007.5hPa West 2.9mph /  4.7km/h 9mph /  14.5km/h 82% 0in /  0.0mm 158 W/m2
10:28 67.8 °F /  19.9 °C 62.1 °F /  16.7 °C 29.7in /  1007.1hPa WNW 2.9mph /  4.7km/h 5mph /  8km/h 82% 0in /  0.0mm 257 W/m2
10:33 68.2 °F /  20.1 °C 62.4 °F /  16.9 °C 29.7in /  1007.1hPa WNW 2.9mph /  4.7km/h 9mph /  14.5km/h 82% 0in /  0.0mm 220 W/m2
10:38 68.5 °F /  20.3 °C 62.8 °F /  17.1 °C 29.7in /  1006.8hPa WNW 2.9mph /  4.7km/h 7mph /  11.3km/h 82% 0in /  0.0mm 229 W/m2
10:43 68.7 °F /  20.4 °C 62.6 °F /  17 °C 29.7in /  1006.8hPa NW 6mph /  9.7km/h 11mph /  17.7km/h 81% 0in /  0.0mm 171 W/m2
10:48 68.9 °F /  20.5 °C 62.4 °F /  16.9 °C 29.7in /  1006.8hPa NW 2.9mph /  4.7km/h 12mph /  19.3km/h 80% 0in /  0.0mm 158 W/m2
10:53 69.3 °F /  20.7 °C 62.8 °F /  17.1 °C 29.7in /  1006.8hPa WNW 4mph /  6.4km/h 8mph /  12.9km/h 80% 0in /  0.0mm 141 W/m2
10:58 69.4 °F /  20.8 °C 63 °F /  17.2 °C 29.7in /  1006.8hPa WNW 4mph /  6.4km/h 4mph /  6.4km/h 80% 0in /  0.0mm 114 W/m2
11:03 69.6 °F /  20.9 °C 62.1 °F /  16.7 °C 29.7in /  1006.8hPa SW 0.9mph /  1.4km/h 5mph /  8km/h 77% 0in /  0.0mm 779 W/m2
11:08 70.3 °F /  21.3 °C 62.4 °F /  16.9 °C 29.7in /  1006.8hPa WNW 4mph /  6.4km/h 7mph /  11.3km/h 76% 0in /  0.0mm 192 W/m2
11:13 70.5 °F /  21.4 °C 62.6 °F /  17 °C 29.7in /  1006.8hPa West 0.9mph /  1.4km/h 4mph /  6.4km/h 76% 0in /  0.0mm 218 W/m2
11:18 71.2 °F /  21.8 °C 63.3 °F /  17.4 °C 29.7in /  1006.8hPa West 2mph /  3.2km/h 5mph /  8km/h 76% 0in /  0.0mm 221 W/m2
11:23 71.4 °F /  21.9 °C 63.1 °F /  17.3 °C 29.7in /  1007.1hPa WNW 0.9mph /  1.4km/h 4mph /  6.4km/h 75% 0in /  0.0mm 301 W/m2
11:28 71.6 °F /  22 °C 63.3 °F /  17.4 °C 29.7in /  1006.8hPa West 2.9mph /  4.7km/h 4mph /  6.4km/h 75% 0in /  0.0mm 497 W/m2
11:33 72.1 °F /  22.3 °C 63.9 °F /  17.7 °C 29.7in /  1006.8hPa NW 4mph /  6.4km/h 4mph /  6.4km/h 75% 0in /  0.0mm 1049 W/m2
11:38 72.3 °F /  22.4 °C 63.1 °F /  17.3 °C 29.7in /  1006.8hPa SE 2mph /  3.2km/h 10mph /  16.1km/h 73% 0in /  0.0mm 281 W/m2
11:43 72.3 °F /  22.4 °C 63.1 °F /  17.3 °C 29.7in /  1006.8hPa Calm   6mph /  9.7km/h 73% 0in /  0.0mm 258 W/m2
11:48 72.3 °F /  22.4 °C 63.1 °F /  17.3 °C 29.7in /  1006.8hPa West 2mph /  3.2km/h 8mph /  12.9km/h 73% 0in /  0.0mm 782 W/m2
11:53 72.7 °F /  22.6 °C 63.1 °F /  17.3 °C 29.7in /  1006.8hPa WNW 4.9mph /  7.9km/h 9mph /  14.5km/h 72% 0in /  0.0mm 856 W/m2
11:58 72.9 °F /  22.7 °C 62.4 °F /  16.9 °C 29.7in /  1006.8hPa NW 4.9mph /  7.9km/h 8mph /  12.9km/h 70% 0in /  0.0mm 197 W/m2
12:03 72.7 °F /  22.6 °C 62.2 °F /  16.8 °C 29.7in /  1006.8hPa SW 2mph /  3.2km/h 7mph /  11.3km/h 70% 0in /  0.0mm 188 W/m2
12:08 72.3 °F /  22.4 °C 62.1 °F /  16.7 °C 29.7in /  1006.8hPa West 4mph /  6.4km/h 9mph /  14.5km/h 70% 0in /  0.0mm 144 W/m2
12:14 72 °F /  22.2 °C 62.1 °F /  16.7 °C 29.7in /  1006.8hPa West 2mph /  3.2km/h 4mph /  6.4km/h 71% 0in /  0.0mm 176 W/m2
12:19 71.8 °F /  22.1 °C 62.2 °F /  16.8 °C 29.7in /  1006.8hPa WNW 2mph /  3.2km/h 6mph /  9.7km/h 72% 0in /  0.0mm 311 W/m2
12:24 72 °F /  22.2 °C 62.4 °F /  16.9 °C 29.7in /  1006.8hPa SW 0.9mph /  1.4km/h 7mph /  11.3km/h 72% 0in /  0.0mm 366 W/m2
12:29 72.1 °F /  22.3 °C 62.6 °F /  17 °C 29.7in /  1006.8hPa Calm   3mph /  4.8km/h 72% 0in /  0.0mm 272 W/m2
12:34 72.3 °F /  22.4 °C 62.4 °F /  16.9 °C 29.7in /  1006.8hPa West 0.9mph /  1.4km/h 2mph /  3.2km/h 71% 0in /  0.0mm 234 W/m2
12:39 72.3 °F /  22.4 °C 62.4 °F /  16.9 °C 29.7in /  1006.8hPa Calm   3mph /  4.8km/h 71% 0in /  0.0mm 295 W/m2
12:44 72.3 °F /  22.4 °C 62.1 °F /  16.7 °C 29.7in /  1006.8hPa West 4mph /  6.4km/h 4mph /  6.4km/h 70% 0in /  0.0mm 211 W/m2
12:49 72.1 °F /  22.3 °C 62.6 °F /  17 °C 29.7in /  1006.4hPa Calm   3mph /  4.8km/h 72% 0in /  0.0mm 149 W/m2
12:54 72.1 °F /  22.3 °C 63.3 °F /  17.4 °C 29.7in /  1006.4hPa Calm   2mph /  3.2km/h 74% 0in /  0.0mm 248 W/m2
12:59 72.1 °F /  22.3 °C 64.9 °F /  18.3 °C 29.7in /  1006.8hPa WSW 2.9mph /  4.7km/h 3mph /  4.8km/h 78% 0in /  0.0mm 336 W/m2
13:04 71.6 °F /  22 °C 64 °F /  17.8 °C 29.7in /  1006.8hPa WNW 2mph /  3.2km/h 6mph /  9.7km/h 77% 0in /  0.0mm 294 W/m2
13:09 71.2 °F /  21.8 °C 64 °F /  17.8 °C 29.7in /  1006.8hPa WNW 0.9mph /  1.4km/h 3mph /  4.8km/h 78% 0in /  0.0mm 209 W/m2
13:14 71.1 °F /  21.7 °C 63.5 °F /  17.5 °C 29.7in /  1006.8hPa West 0.9mph /  1.4km/h 4mph /  6.4km/h 77% 0in /  0.0mm 327 W/m2
13:19 71.2 °F /  21.8 °C 64.4 °F /  18 °C 29.7in /  1006.4hPa NW 2mph /  3.2km/h 5mph /  8km/h 79% 0in /  0.0mm 374 W/m2
13:24 71.8 °F /  22.1 °C 64.6 °F /  18.1 °C 29.7in /  1006.4hPa NNW 2.9mph /  4.7km/h 5mph /  8km/h 78% 0in /  0.0mm 954 W/m2
13:29 72.5 °F /  22.5 °C 64 °F /  17.8 °C 29.7in /  1006.4hPa NW 4mph /  6.4km/h 4mph /  6.4km/h 75% 0in /  0.0mm 939 W/m2
13:34 73 °F /  22.8 °C 64.6 °F /  18.1 °C 29.7in /  1006.4hPa SSW 2.9mph /  4.7km/h 6mph /  9.7km/h 75% 0in /  0.0mm 933 W/m2
13:39 73.6 °F /  23.1 °C 64.4 °F /  18 °C 29.7in /  1006.4hPa WNW 4.9mph /  7.9km/h 7mph /  11.3km/h 73% 0in /  0.0mm 367 W/m2
13:44 73.4 °F /  23 °C 63.5 °F /  17.5 °C 29.7in /  1006.4hPa West 4mph /  6.4km/h 9mph /  14.5km/h 71% 0in /  0.0mm 204 W/m2
13:49 73 °F /  22.8 °C 63.9 °F /  17.7 °C 29.7in /  1006.4hPa NW 4mph /  6.4km/h 7mph /  11.3km/h 73% 0in /  0.0mm 118 W/m2
13:54 72.7 °F /  22.6 °C 63.1 °F /  17.3 °C 29.7in /  1006.4hPa West 0.9mph /  1.4km/h 9mph /  14.5km/h 72% 0in /  0.0mm 76 W/m2
13:59 72.1 °F /  22.3 °C 64.2 °F /  17.9 °C 29.7in /  1006.8hPa NW 2mph /  3.2km/h 11mph /  17.7km/h 76% 0.03in /  0.8mm 104 W/m2
14:04 71.4 °F /  21.9 °C 65.7 °F /  18.7 °C 29.7in /  1006.8hPa SW 0.9mph /  1.4km/h 1mph /  1.6km/h 82% 0.1in /  2.5mm 183 W/m2
14:09 70.7 °F /  21.5 °C 65.7 °F /  18.7 °C 29.7in /  1007.1hPa South 0.9mph /  1.4km/h 7mph /  11.3km/h 84% 0.1in /  2.5mm 265 W/m2
14:14 70.2 °F /  21.2 °C 65.5 °F /  18.6 °C 29.7in /  1007.1hPa East 2mph /  3.2km/h 3mph /  4.8km/h 85% 0.1in /  2.5mm 264 W/m2
14:19 69.4 °F /  20.8 °C 65.1 °F /  18.4 °C 29.7in /  1006.8hPa ESE 2.9mph /  4.7km/h 3mph /  4.8km/h 86% 0.1in /  2.5mm 165 W/m2
14:24 69.3 °F /  20.7 °C 65.3 °F /  18.5 °C 29.7in /  1007.1hPa Calm   2mph /  3.2km/h 87% 0.1in /  2.5mm 148 W/m2
14:29 68.9 °F /  20.5 °C 65.1 °F /  18.4 °C 29.7in /  1007.1hPa ESE 2mph /  3.2km/h 3mph /  4.8km/h 88% 0.1in /  2.5mm 127 W/m2
14:34 68.5 °F /  20.3 °C 64.8 °F /  18.2 °C 29.7in /  1007.1hPa East 2mph /  3.2km/h 3mph /  4.8km/h 88% 0.1in /  2.5mm 121 W/m2
14:39 68.4 °F /  20.2 °C 64.6 °F /  18.1 °C 29.7in /  1007.1hPa ENE 2mph /  3.2km/h 3mph /  4.8km/h 88% 0.1in /  2.5mm 97 W/m2
14:44 68.2 °F /  20.1 °C 64.4 °F /  18 °C 29.7in /  1007.1hPa East 0.9mph /  1.4km/h 1mph /  1.6km/h 88% 0.1in /  2.5mm 79 W/m2
14:49 68.2 °F /  20.1 °C 64.8 °F /  18.2 °C 29.7in /  1007.1hPa Calm   1mph /  1.6km/h 89% 0.1in /  2.5mm 60 W/m2
14:54 68.2 °F /  20.1 °C 65.1 °F /  18.4 °C 29.7in /  1006.8hPa Calm     90% 0.1in /  2.5mm 49 W/m2
14:59 68.2 °F /  20.1 °C 65.1 °F /  18.4 °C 29.7in /  1007.1hPa Calm   1mph /  1.6km/h 90% 0.07in /  1.8mm 46 W/m2
15:04 67.8 °F /  19.9 °C 64.4 °F /  18 °C 29.7in /  1007.1hPa Calm     89% 0in /  0.0mm 69 W/m2
15:09 67.6 °F /  19.8 °C 64.6 °F /  18.1 °C 29.7in /  1007.1hPa Calm   3mph /  4.8km/h 90% 0.02in /  0.5mm 125 W/m2
15:14 67.5 °F /  19.7 °C 64.4 °F /  18 °C 29.7in /  1007.1hPa SE 2.9mph /  4.7km/h 3mph /  4.8km/h 90% 0.02in /  0.5mm 232 W/m2
15:19 67.5 °F /  19.7 °C 64.4 °F /  18 °C 29.7in /  1007.1hPa ESE 2mph /  3.2km/h 4mph /  6.4km/h 90% 0.02in /  0.5mm 316 W/m2
15:24 67.5 °F /  19.7 °C 64.8 °F /  18.2 °C 29.7in /  1007.1hPa East 0.9mph /  1.4km/h 4mph /  6.4km/h 91% 0.02in /  0.5mm 213 W/m2
15:29 67.3 °F /  19.6 °C 64.6 °F /  18.1 °C 29.7in /  1007.1hPa ESE 4mph /  6.4km/h 4mph /  6.4km/h 91% 0.02in /  0.5mm 220 W/m2
15:34 67.3 °F /  19.6 °C 64.6 °F /  18.1 °C 29.7in /  1007.1hPa East 4.9mph /  7.9km/h 5mph /  8km/h 91% 0.02in /  0.5mm 403 W/m2
15:39 67.6 °F /  19.8 °C 65.3 °F /  18.5 °C 29.7in /  1007.1hPa ENE 2mph /  3.2km/h 4mph /  6.4km/h 92% 0.02in /  0.5mm 700 W/m2
15:44 68.2 °F /  20.1 °C 65.8 °F /  18.8 °C 29.7in /  1007.1hPa SW 2mph /  3.2km/h 7mph /  11.3km/h 92% 0.02in /  0.5mm 566 W/m2
15:49 68.2 °F /  20.1 °C 65.5 °F /  18.6 °C 29.7in /  1007.1hPa East 2.9mph /  4.7km/h 7mph /  11.3km/h 91% 0.02in /  0.5mm 350 W/m2
15:54 68 °F /  20 °C 64.6 °F /  18.1 °C 29.7in /  1006.8hPa ESE 4mph /  6.4km/h 8mph /  12.9km/h 89% 0.02in /  0.5mm 466 W/m2
15:59 68.2 °F /  20.1 °C 64.8 °F /  18.2 °C 29.7in /  1006.8hPa NE 0.9mph /  1.4km/h 6mph /  9.7km/h 89% 0.02in /  0.5mm 278 W/m2
16:04 68.5 °F /  20.3 °C 65.1 °F /  18.4 °C 29.7in /  1006.8hPa ENE 2mph /  3.2km/h 8mph /  12.9km/h 89% 0.02in /  0.5mm 243 W/m2
16:09 68.5 °F /  20.3 °C 65.1 °F /  18.4 °C 29.7in /  1006.8hPa ESE 4mph /  6.4km/h 6mph /  9.7km/h 89% 0in /  0.0mm 223 W/m2
16:14 68.7 °F /  20.4 °C 64.9 °F /  18.3 °C 29.7in /  1006.8hPa ESE 6mph /  9.7km/h 8mph /  12.9km/h 88% 0in /  0.0mm 308 W/m2
16:19 68.7 °F /  20.4 °C 64.9 °F /  18.3 °C 29.7in /  1007.1hPa ESE 0.9mph /  1.4km/h 4mph /  6.4km/h 88% 0in /  0.0mm 267 W/m2
16:24 68.9 °F /  20.5 °C 65.1 °F /  18.4 °C 29.7in /  1007.1hPa East 6mph /  9.7km/h 6mph /  9.7km/h 88% 0in /  0.0mm 262 W/m2
16:29 69.1 °F /  20.6 °C 65.3 °F /  18.5 °C 29.7in /  1007.1hPa East 0.9mph /  1.4km/h 1mph /  1.6km/h 88% 0in /  0.0mm 264 W/m2
16:34 69.3 °F /  20.7 °C 65.3 °F /  18.5 °C 29.7in /  1007.1hPa NE 2.9mph /  4.7km/h 4mph /  6.4km/h 87% 0in /  0.0mm 283 W/m2
16:39 69.6 °F /  20.9 °C 64.9 °F /  18.3 °C 29.7in /  1007.1hPa East 0.9mph /  1.4km/h 3mph /  4.8km/h 85% 0in /  0.0mm 425 W/m2
16:44 70 °F /  21.1 °C 63.9 °F /  17.7 °C 29.7in /  1007.1hPa East 0.9mph /  1.4km/h 4mph /  6.4km/h 81% 0in /  0.0mm 403 W/m2
16:49 70.5 °F /  21.4 °C 63.7 °F /  17.6 °C 29.7in /  1007.1hPa WNW 2.9mph /  4.7km/h 7mph /  11.3km/h 79% 0in /  0.0mm 480 W/m2
16:54 70.9 °F /  21.6 °C 64.8 °F /  18.2 °C 29.7in /  1007.1hPa ESE 4mph /  6.4km/h 4mph /  6.4km/h 81% 0in /  0.0mm 357 W/m2
16:59 71.1 °F /  21.7 °C 64.6 °F /  18.1 °C 29.7in /  1007.1hPa ENE 0.9mph /  1.4km/h 7mph /  11.3km/h 80% 0in /  0.0mm 299 W/m2
17:04 70.9 °F /  21.6 °C 62.2 °F /  16.8 °C 29.7in /  1007.1hPa NNW 0.9mph /  1.4km/h 3mph /  4.8km/h 74% 0in /  0.0mm 276 W/m2
17:09 70.9 °F /  21.6 °C 61.9 °F /  16.6 °C 29.7in /  1007.1hPa ENE 0.9mph /  1.4km/h 2mph /  3.2km/h 73% 0in /  0.0mm 283 W/m2
17:14 71.1 °F /  21.7 °C 61.9 °F /  16.6 °C 29.7in /  1007.1hPa SE 0.9mph /  1.4km/h 4mph /  6.4km/h 73% 0in /  0.0mm 237 W/m2
17:19 70.9 °F /  21.6 °C 61.9 °F /  16.6 °C 29.7in /  1007.1hPa Calm   3mph /  4.8km/h 73% 0in /  0.0mm 197 W/m2
17:24 70.7 °F /  21.5 °C 61.2 °F /  16.2 °C 29.7in /  1007.1hPa Calm   3mph /  4.8km/h 72% 0in /  0.0mm 193 W/m2
17:29 70.5 °F /  21.4 °C 61.5 °F /  16.4 °C 29.7in /  1007.1hPa ESE 2mph /  3.2km/h 3mph /  4.8km/h 73% 0in /  0.0mm 202 W/m2
17:34 70.3 °F /  21.3 °C 61.7 °F /  16.5 °C 29.7in /  1007.1hPa Calm   2mph /  3.2km/h 74% 0in /  0.0mm 207 W/m2
17:39 70.3 °F /  21.3 °C 62.1 °F /  16.7 °C 29.7in /  1007.1hPa SSE 0.9mph /  1.4km/h 2mph /  3.2km/h 75% 0in /  0.0mm 199 W/m2
17:44 70.3 °F /  21.3 °C 62.4 °F /  16.9 °C 29.7in /  1007.1hPa SSW 2.9mph /  4.7km/h 3mph /  4.8km/h 76% 0in /  0.0mm 197 W/m2
17:49 70.5 °F /  21.4 °C 63.3 °F /  17.4 °C 29.7in /  1007.1hPa Calm   3mph /  4.8km/h 78% 0in /  0.0mm 188 W/m2
17:54 70.3 °F /  21.3 °C 62.8 °F /  17.1 °C 29.7in /  1007.1hPa ESE 0.9mph /  1.4km/h 3mph /  4.8km/h 77% 0in /  0.0mm 156 W/m2
17:59 70.3 °F /  21.3 °C 62.8 °F /  17.1 °C 29.7in /  1007.1hPa East 0.9mph /  1.4km/h 3mph /  4.8km/h 77% 0in /  0.0mm 141 W/m2
18:04 70.3 °F /  21.3 °C 62.4 °F /  16.9 °C 29.7in /  1007.1hPa South 0.9mph /  1.4km/h 2mph /  3.2km/h 76% 0in /  0.0mm 165 W/m2
18:09 70.3 °F /  21.3 °C 62.1 °F /  16.7 °C 29.7in /  1007.1hPa Calm   2mph /  3.2km/h 75% 0in /  0.0mm 234 W/m2
18:14 70.5 °F /  21.4 °C 61.9 °F /  16.6 °C 29.7in /  1007.1hPa Calm   3mph /  4.8km/h 74% 0in /  0.0mm 248 W/m2
18:19 70.9 °F /  21.6 °C 63 °F /  17.2 °C 29.7in /  1007.1hPa SW 0.9mph /  1.4km/h 3mph /  4.8km/h 76% 0in /  0.0mm 172 W/m2
18:25 71.1 °F /  21.7 °C 62.8 °F /  17.1 °C 29.7in /  1007.1hPa SSE 2mph /  3.2km/h 3mph /  4.8km/h 75% 0in /  0.0mm 209 W/m2
18:30 71.1 °F /  21.7 °C 62.8 °F /  17.1 °C 29.7in /  1007.1hPa NW 2.9mph /  4.7km/h 7mph /  11.3km/h 75% 0in /  0.0mm 221 W/m2
18:35 71.1 °F /  21.7 °C 62.4 °F /  16.9 °C 29.7in /  1006.8hPa West 2mph /  3.2km/h 6mph /  9.7km/h 74% 0in /  0.0mm 260 W/m2
18:40 71.2 °F /  21.8 °C 62.6 °F /  17 °C 29.7in /  1007.1hPa West 2mph /  3.2km/h 4mph /  6.4km/h 74% 0in /  0.0mm 367 W/m2
18:45 71.4 °F /  21.9 °C 62.8 °F /  17.1 °C 29.7in /  1007.1hPa NNE 2mph /  3.2km/h 5mph /  8km/h 74% 0in /  0.0mm 390 W/m2
18:50 72 °F /  22.2 °C 63.7 °F /  17.6 °C 29.7in /  1007.1hPa ENE 4mph /  6.4km/h 5mph /  8km/h 75% 0in /  0.0mm 330 W/m2
18:55 72.3 °F /  22.4 °C 63.5 °F /  17.5 °C 29.7in /  1007.1hPa NNW 2mph /  3.2km/h 4mph /  6.4km/h 74% 0in /  0.0mm 211 W/m2
19:00 72.3 °F /  22.4 °C 63.1 °F /  17.3 °C 29.7in /  1007.1hPa WNW 2mph /  3.2km/h 4mph /  6.4km/h 73% 0in /  0.0mm 176 W/m2
19:05 72.5 °F /  22.5 °C 63.3 °F /  17.4 °C 29.8in /  1007.5hPa NW 0.9mph /  1.4km/h 3mph /  4.8km/h 73% 0in /  0.0mm 167 W/m2
19:10 72.9 °F /  22.7 °C 63.3 °F /  17.4 °C 29.7in /  1007.1hPa NW 2.9mph /  4.7km/h 3mph /  4.8km/h 72% 0in /  0.0mm 172 W/m2
19:15 73 °F /  22.8 °C 63.5 °F /  17.5 °C 29.8in /  1007.5hPa North 2.9mph /  4.7km/h 7mph /  11.3km/h 72% 0in /  0.0mm 151 W/m2
19:20 72.9 °F /  22.7 °C 63.3 °F /  17.4 °C 29.8in /  1007.5hPa ESE 0.9mph /  1.4km/h 1mph /  1.6km/h 72% 0in /  0.0mm 151 W/m2
19:25 72.9 °F /  22.7 °C 63 °F /  17.2 °C 29.8in /  1007.5hPa NNE 0.9mph /  1.4km/h 3mph /  4.8km/h 71% 0in /  0.0mm 137 W/m2
19:30 72.3 °F /  22.4 °C 62.4 °F /  16.9 °C 29.8in /  1007.5hPa NE 2mph /  3.2km/h 2mph /  3.2km/h 71% 0in /  0.0mm 137 W/m2
19:35 72.1 °F /  22.3 °C 62.2 °F /  16.8 °C 29.8in /  1007.8hPa WSW 2mph /  3.2km/h 3mph /  4.8km/h 71% 0in /  0.0mm 134 W/m2
19:40 72.1 °F /  22.3 °C 62.6 °F /  17 °C 29.8in /  1007.8hPa NNW 2.9mph /  4.7km/h 3mph /  4.8km/h 72% 0in /  0.0mm 107 W/m2
19:45 72 °F /  22.2 °C 62.1 °F /  16.7 °C 29.8in /  1007.8hPa NNW 0.9mph /  1.4km/h 2mph /  3.2km/h 71% 0in /  0.0mm 97 W/m2
19:50 71.8 °F /  22.1 °C 62.2 °F /  16.8 °C 29.8in /  1007.8hPa NE 2.9mph /  4.7km/h 6mph /  9.7km/h 72% 0in /  0.0mm 90 W/m2
19:55 71.2 °F /  21.8 °C 63.3 °F /  17.4 °C 29.8in /  1007.8hPa East 6mph /  9.7km/h 8mph /  12.9km/h 76% 0in /  0.0mm 93 W/m2
20:00 70.7 °F /  21.5 °C 62.8 °F /  17.1 °C 29.8in /  1007.8hPa ENE 2mph /  3.2km/h 7mph /  11.3km/h 76% 0in /  0.0mm 62 W/m2
20:05 70.3 °F /  21.3 °C 62.8 °F /  17.1 °C 29.8in /  1007.8hPa ESE 2mph /  3.2km/h 8mph /  12.9km/h 77% 0in /  0.0mm 76 W/m2
20:10 70.2 °F /  21.2 °C 63 °F /  17.2 °C 29.8in /  1007.8hPa East 2mph /  3.2km/h 4mph /  6.4km/h 78% 0in /  0.0mm 70 W/m2
20:15 70 °F /  21.1 °C 63.1 °F /  17.3 °C 29.8in /  1008.1hPa Calm   4mph /  6.4km/h 79% 0in /  0.0mm 47 W/m2
20:20 69.4 °F /  20.8 °C 62.6 °F /  17 °C 29.8in /  1007.8hPa NNE 2mph /  3.2km/h 6mph /  9.7km/h 79% 0in /  0.0mm 26 W/m2
20:25 69.1 °F /  20.6 °C 62.2 °F /  16.8 °C 29.8in /  1008.1hPa NNE 2.9mph /  4.7km/h 4mph /  6.4km/h 79% 0in /  0.0mm 18 W/m2
20:30 68.5 °F /  20.3 °C 62.1 °F /  16.7 °C 29.8in /  1008.1hPa NE 0.9mph /  1.4km/h 2mph /  3.2km/h 80% 0in /  0.0mm 14 W/m2
20:35 68.4 °F /  20.2 °C 61.9 °F /  16.6 °C 29.8in /  1008.1hPa NNE 2mph /  3.2km/h 3mph /  4.8km/h 80% 0in /  0.0mm 9 W/m2
20:40 68.2 °F /  20.1 °C 62.1 °F /  16.7 °C 29.8in /  1008.5hPa East 0.9mph /  1.4km/h 4mph /  6.4km/h 81% 0in /  0.0mm 7 W/m2
20:45 67.8 °F /  19.9 °C 61.7 °F /  16.5 °C 29.8in /  1008.5hPa NNE 2mph /  3.2km/h 6mph /  9.7km/h 81% 0in /  0.0mm 5 W/m2
20:50 67.6 °F /  19.8 °C 61.9 °F /  16.6 °C 29.8in /  1008.5hPa NE 2mph /  3.2km/h 3mph /  4.8km/h 82% 0in /  0.0mm 0 W/m2
20:55 67.6 °F /  19.8 °C 61.9 °F /  16.6 °C 29.8in /  1008.5hPa Calm   2mph /  3.2km/h 82% 0in /  0.0mm 0 W/m2
21:00 67.5 °F /  19.7 °C 61.7 °F /  16.5 °C 29.8in /  1008.8hPa NW 2mph /  3.2km/h 6mph /  9.7km/h 82% 0in /  0.0mm 0 W/m2
21:05 66.9 °F /  19.4 °C 60.6 °F /  15.9 °C 29.8in /  1009.1hPa WNW 8.1mph /  13km/h 11mph /  17.7km/h 80% 0in /  0.0mm 0 W/m2
21:10 65.7 °F /  18.7 °C 60.1 °F /  15.6 °C 29.8in /  1009.1hPa NW 0.9mph /  1.4km/h 4mph /  6.4km/h 82% 0.01in /  0.2mm 0 W/m2
21:15 64.6 °F /  18.1 °C 59.9 °F /  15.5 °C 29.8in /  1009.1hPa West 0.9mph /  1.4km/h 11mph /  17.7km/h 85% 0.02in /  0.5mm 0 W/m2
21:20 63.9 °F /  17.7 °C 59.9 °F /  15.5 °C 29.8in /  1009.1hPa NNW 2mph /  3.2km/h 2mph /  3.2km/h 87% 0.05in /  1.3mm 0 W/m2
21:25 63.5 °F /  17.5 °C 59.9 °F /  15.5 °C 29.8in /  1009.5hPa WSW 0.9mph /  1.4km/h 1mph /  1.6km/h 88% 0.06in /  1.5mm 7 W/m2
21:30 63.3 °F /  17.4 °C 60.3 °F /  15.7 °C 29.8in /  1009.5hPa Calm   2mph /  3.2km/h 90% 0.06in /  1.5mm 11 W/m2
21:35 63.1 °F /  17.3 °C 60.1 °F /  15.6 °C 29.8in /  1009.5hPa Calm   2mph /  3.2km/h 90% 0.06in /  1.5mm 7 W/m2
21:40 63 °F /  17.2 °C 59.9 °F /  15.5 °C 29.8in /  1009.5hPa Calm   1mph /  1.6km/h 90% 0.06in /  1.5mm 0 W/m2
21:45 63 °F /  17.2 °C 60.3 °F /  15.7 °C 29.8in /  1009.5hPa Calm     91% 0.06in /  1.5mm 0 W/m2
21:50 63 °F /  17.2 °C 60.6 °F /  15.9 °C 29.8in /  1009.5hPa Calm     92% 0.06in /  1.5mm 0 W/m2
21:55 63 °F /  17.2 °C 60.6 °F /  15.9 °C 29.8in /  1009.8hPa Calm     92% 0.06in /  1.5mm 0 W/m2
22:00 62.8 °F /  17.1 °C 60.4 °F /  15.8 °C 29.8in /  1009.8hPa Calm     92% 0.06in /  1.5mm 0 W/m2
22:05 62.8 °F /  17.1 °C 60.4 °F /  15.8 °C 29.8in /  1009.8hPa Calm     92% 0.06in /  1.5mm 0 W/m2
22:10 62.6 °F /  17 °C 60.6 °F /  15.9 °C 29.8in /  1009.8hPa Calm     93% 0.06in /  1.5mm 0 W/m2
22:15 62.4 °F /  16.9 °C 60.4 °F /  15.8 °C 29.8in /  1009.8hPa SSE 0.9mph /  1.4km/h 1mph /  1.6km/h 93% 0.05in /  1.3mm 0 W/m2
22:20 62.4 °F /  16.9 °C 60.4 °F /  15.8 °C 29.8in /  1010.2hPa Calm   1mph /  1.6km/h 93% 0.02in /  0.5mm 0 W/m2
22:25 62.2 °F /  16.8 °C 60.3 °F /  15.7 °C 29.8in /  1010.2hPa SSE 0.9mph /  1.4km/h 1mph /  1.6km/h 93% 0.01in /  0.2mm 0 W/m2
22:30 62.2 °F /  16.8 °C 60.3 °F /  15.7 °C 29.8in /  1010.2hPa Calm     93% 0.01in /  0.2mm 0 W/m2
22:35 62.1 °F /  16.7 °C 60.1 °F /  15.6 °C 29.8in /  1010.2hPa SSE 1mph /  1.6km/h 1mph /  1.6km/h 93% 0.01in /  0.2mm 0 W/m2
22:40 61.9 °F /  16.6 °C 59.9 °F /  15.5 °C 29.8in /  1010.2hPa Calm     93% 0in /  0.0mm 0 W/m2
22:45 61.7 °F /  16.5 °C 59.7 °F /  15.4 °C 29.8in /  1010.2hPa Calm     93% 0in /  0.0mm 0 W/m2
22:50 61.3 °F /  16.3 °C 59.4 °F /  15.2 °C 29.8in /  1010.2hPa Calm   1mph /  1.6km/h 93% 0in /  0.0mm 0 W/m2
22:55 61.3 °F /  16.3 °C 59.4 °F /  15.2 °C 29.8in /  1010.2hPa Calm     93% 0in /  0.0mm 0 W/m2
23:00 61.2 °F /  16.2 °C 59.2 °F /  15.1 °C 29.8in /  1010.2hPa SSE 0.9mph /  1.4km/h 1mph /  1.6km/h 93% 0in /  0.0mm 0 W/m2
23:05 61 °F /  16.1 °C 59 °F /  15 °C 29.8in /  1010.2hPa Calm     93% 0in /  0.0mm 0 W/m2
23:10 61 °F /  16.1 °C 59.2 °F /  15.1 °C 29.8in /  1010.2hPa Calm     94% 0in /  0.0mm 0 W/m2
23:15 60.8 °F /  16 °C 59 °F /  15 °C 29.8in /  1010.2hPa Calm   1mph /  1.6km/h 94% 0in /  0.0mm 0 W/m2
23:20 60.6 °F /  15.9 °C 58.8 °F /  14.9 °C 29.8in /  1010.2hPa Calm     94% 0in /  0.0mm 0 W/m2
23:25 60.4 °F /  15.8 °C 58.6 °F /  14.8 °C 29.8in /  1010.2hPa Calm   2mph /  3.2km/h 94% 0in /  0.0mm 0 W/m2
23:30 60.4 °F /  15.8 °C 58.6 °F /  14.8 °C 29.8in /  1010.2hPa Calm   1mph /  1.6km/h 94% 0in /  0.0mm 0 W/m2
23:35 60.4 °F /  15.8 °C 58.6 °F /  14.8 °C 29.8in /  1010.2hPa SSW 0.9mph /  1.4km/h 2mph /  3.2km/h 94% 0in /  0.0mm 0 W/m2
23:40 60.4 °F /  15.8 °C 58.6 °F /  14.8 °C 29.8in /  1010.2hPa NNE 2.9mph /  4.7km/h 4mph /  6.4km/h 94% 0in /  0.0mm 0 W/m2
23:45 60.6 °F /  15.9 °C 58.8 °F /  14.9 °C 29.8in /  1010.2hPa Calm   2mph /  3.2km/h 94% 0in /  0.0mm 0 W/m2
23:51 60.8 °F /  16 °C 59 °F /  15 °C 29.8in /  1010.2hPa Calm   2mph /  3.2km/h 94% 0in /  0.0mm 0 W/m2
23:56 61 °F /  16.1 °C 59 °F /  15 °C 29.8in /  1010.2hPa Calm   3mph /  4.8km/h 93% 0in /  0.0mm 0 W/m2
Juneau County Weather
Compliments of Weather Underground - 4 mb